createdAt,value
2022-08-12T00:00:54.831Z,95543.47
2022-08-12T00:04:55.142Z,95546.25
2022-08-12T00:08:57.880Z,95545.13
2022-08-12T00:12:58.227Z,95540.94
2022-08-12T00:17:01.199Z,95539.94
2022-08-12T00:21:01.635Z,95536.53
2022-08-12T00:25:02.100Z,95543.53
2022-08-12T00:29:02.975Z,95541.41
2022-08-12T00:33:04.542Z,95530.25
2022-08-12T00:37:13.004Z,95530.44
2022-08-12T00:41:14.369Z,95530.19
2022-08-12T00:44:57.893Z,95524.06
2022-08-12T00:48:43.069Z,95521.81
2022-08-12T00:52:26.762Z,95520.53
2022-08-12T00:56:09.909Z,95523.75
2022-08-12T00:59:54.727Z,95517.53
2022-08-12T01:03:57.074Z,95508.91
2022-08-12T01:08:02.738Z,95516.63
2022-08-12T01:11:45.597Z,95511.41
2022-08-12T01:15:29.240Z,95508.75
2022-08-12T01:19:12.940Z,95501.00
2022-08-12T01:23:12.501Z,95503.88
2022-08-12T01:26:58.348Z,95516.16
2022-08-12T01:30:42.927Z,95508.75
2022-08-12T01:34:39.344Z,95502.28
2022-08-12T01:38:29.820Z,95503.34
2022-08-12T01:42:15.425Z,95512.91
2022-08-12T01:46:06.634Z,95514.22
2022-08-12T01:50:00.599Z,95505.91
2022-08-12T01:54:04.611Z,95503.75
2022-08-12T01:57:58.194Z,95501.09
2022-08-12T02:01:44.149Z,95496.50
2022-08-12T02:05:53.152Z,95488.75
2022-08-12T02:10:06.012Z,95488.13
2022-08-12T02:14:00.720Z,95485.69
2022-08-12T02:17:55.877Z,95490.28
2022-08-12T02:21:43.256Z,95487.63
2022-08-12T02:25:31.253Z,95483.13
2022-08-12T02:29:15.966Z,95480.47
2022-08-12T02:33:01.579Z,95480.13
2022-08-12T02:36:46.141Z,95474.75
2022-08-12T02:40:30.280Z,95469.88
2022-08-12T02:44:16.569Z,95473.59
2022-08-12T02:48:04.271Z,95477.28
2022-08-12T02:51:47.052Z,95464.66
2022-08-12T02:55:34.782Z,95472.13
2022-08-12T02:59:22.727Z,95463.34
2022-08-12T03:03:07.500Z,95473.59
2022-08-12T03:07:10.617Z,95471.81
2022-08-12T03:10:54.230Z,95462.63
2022-08-12T03:14:40.548Z,95471.41
2022-08-12T03:18:28.737Z,95463.09
2022-08-12T03:22:14.572Z,95471.31
2022-08-12T03:25:58.973Z,95465.19
2022-08-12T03:29:50.307Z,95477.03
2022-08-12T03:33:36.492Z,95470.94
2022-08-12T03:37:21.196Z,95473.59
2022-08-12T03:41:24.540Z,95470.34
2022-08-12T03:45:50.047Z,95468.38
2022-08-12T03:49:53.690Z,95473.56
2022-08-12T03:53:54.110Z,95465.63
2022-08-12T03:57:54.632Z,95471.84
2022-08-12T04:01:41.139Z,95469.34
2022-08-12T04:05:24.202Z,95465.13
2022-08-12T04:09:27.831Z,95470.13
2022-08-12T04:13:19.739Z,95465.53
2022-08-12T04:17:05.300Z,95461.19
2022-08-12T04:20:49.968Z,95465.34
2022-08-12T04:24:34.961Z,95476.88
2022-08-12T04:28:27.898Z,95481.03
2022-08-12T04:32:12.415Z,95475.28
2022-08-12T04:35:56.339Z,95473.19
2022-08-12T04:39:40.428Z,95479.63
2022-08-12T04:43:54.489Z,95480.56
2022-08-12T04:47:27.833Z,95484.72
2022-08-12T04:51:10.773Z,95490.38
2022-08-12T04:54:53.530Z,95478.13
2022-08-12T04:58:36.323Z,95486.28
2022-08-12T05:02:21.008Z,95487.69
2022-08-12T05:06:07.196Z,95497.91
2022-08-12T05:10:01.062Z,95490.16
2022-08-12T05:13:45.501Z,95486.75
2022-08-12T05:17:28.575Z,95497.00
2022-08-12T05:21:13.035Z,95503.38
2022-08-12T05:24:56.155Z,95484.69
2022-08-12T05:28:39.439Z,95500.38
2022-08-12T05:32:22.227Z,95501.84
2022-08-12T05:36:07.546Z,95507.38
2022-08-12T05:39:51.735Z,95511.25
2022-08-12T05:43:34.972Z,95504.50
2022-08-12T05:47:17.870Z,95504.34
2022-08-12T05:51:00.692Z,95511.97
2022-08-12T05:54:57.073Z,95508.09
2022-08-12T05:58:42.146Z,95502.53
2022-08-12T06:02:26.296Z,95503.41
2022-08-12T06:06:09.192Z,95512.34
2022-08-12T06:09:52.051Z,95503.75
2022-08-12T06:13:54.078Z,95506.00
2022-08-12T06:17:38.767Z,95506.31
2022-08-12T06:21:23.441Z,95506.94
2022-08-12T06:25:07.084Z,95503.91
2022-08-12T06:28:51.321Z,95511.44
2022-08-12T06:32:34.565Z,95503.59
2022-08-12T06:36:22.611Z,95498.97
2022-08-12T06:40:06.356Z,95502.00
2022-08-12T06:44:05.061Z,95495.47
2022-08-12T06:47:50.470Z,95494.16
2022-08-12T06:51:34.680Z,95499.44
2022-08-12T06:55:20.611Z,95493.41
2022-08-12T06:59:03.370Z,95497.19
2022-08-12T07:02:46.712Z,95504.63
2022-08-12T07:06:30.078Z,95496.44
2022-08-12T07:10:14.211Z,95494.09
2022-08-12T07:14:11.602Z,95502.13
2022-08-12T07:18:00.307Z,95498.44
2022-08-12T07:22:01.894Z,95498.50
2022-08-12T07:25:46.965Z,95510.25
2022-08-12T07:30:03.613Z,95506.03
2022-08-12T07:33:33.029Z,95508.72
2022-08-12T07:37:17.732Z,95514.66
2022-08-12T07:41:06.716Z,95517.38
2022-08-12T07:44:51.725Z,95521.16
2022-08-12T07:48:39.500Z,95512.25
2022-08-12T07:52:22.285Z,95516.59
2022-08-12T07:56:09.211Z,95521.94
2022-08-12T07:59:52.823Z,95510.25
2022-08-12T08:03:47.430Z,95515.63
2022-08-12T08:07:31.717Z,95503.63
2022-08-12T08:11:33.536Z,95508.22
2022-08-12T08:15:20.215Z,95511.94
2022-08-12T08:19:03.005Z,95516.22
2022-08-12T08:22:45.779Z,95510.88
2022-08-12T08:26:29.971Z,95510.34
2022-08-12T08:30:13.544Z,95505.09
2022-08-12T08:34:05.498Z,95508.31
2022-08-12T08:38:08.377Z,95513.66
2022-08-12T08:42:18.674Z,95515.31
2022-08-12T08:46:05.655Z,95507.31
2022-08-12T08:49:48.517Z,95502.53
2022-08-12T08:53:31.246Z,95511.09
2022-08-12T08:57:15.330Z,95506.31
2022-08-12T09:00:59.382Z,95508.19
2022-08-12T09:05:11.235Z,95508.47
2022-08-12T09:08:46.324Z,95514.38
2022-08-12T09:16:52.353Z,95508.03
2022-08-12T09:20:37.049Z,95503.78
2022-08-12T09:24:20.144Z,95504.84
2022-08-12T09:28:10.757Z,95502.22
2022-08-12T09:32:06.804Z,95504.41
2022-08-12T09:36:04.232Z,95510.03
2022-08-12T09:40:05.884Z,95509.75
2022-08-12T09:44:39.280Z,95498.75
2022-08-12T09:48:20.236Z,95499.84
2022-08-12T09:52:05.501Z,95498.75
2022-08-12T09:56:32.066Z,95498.50
2022-08-12T10:00:15.232Z,95503.31
2022-08-12T10:04:05.094Z,95502.78
2022-08-12T10:07:48.670Z,95502.75
2022-08-12T10:12:10.327Z,95502.25
2022-08-12T10:16:01.512Z,95509.72
2022-08-12T10:19:51.568Z,95494.16
2022-08-12T10:23:40.169Z,95497.88
2022-08-12T10:28:04.704Z,95497.81
2022-08-12T10:32:21.878Z,95502.53
2022-08-12T10:35:49.644Z,95490.63
2022-08-12T10:40:02.988Z,95498.03
2022-08-12T10:43:55.492Z,95488.28
2022-08-12T10:48:14.930Z,95481.19
2022-08-12T10:52:02.746Z,95480.03
2022-08-12T10:55:48.021Z,95491.34
2022-08-12T10:59:58.129Z,95482.53
2022-08-12T11:04:22.643Z,95484.19
2022-08-12T11:08:34.517Z,95467.59
2022-08-12T11:12:36.833Z,95459.84
2022-08-12T11:16:03.989Z,95462.53
2022-08-12T11:19:51.596Z,95466.31
2022-08-12T11:23:37.090Z,95450.78
2022-08-12T11:27:20.083Z,95450.53
2022-08-12T11:31:04.314Z,95462.56
2022-08-12T11:34:52.756Z,95457.72
2022-08-12T11:38:38.603Z,95451.50
2022-08-12T11:42:32.262Z,95453.25
2022-08-12T11:46:18.468Z,95441.16
2022-08-12T11:50:01.387Z,95441.38
2022-08-12T11:53:56.962Z,95438.63
2022-08-12T11:58:14.307Z,95442.81
2022-08-12T12:02:00.986Z,95431.78
2022-08-12T12:05:47.443Z,95427.72
2022-08-12T12:09:52.795Z,95424.34
2022-08-12T12:14:07.578Z,95430.63
2022-08-12T12:17:38.849Z,95420.84
2022-08-12T12:21:48.460Z,95417.16
2022-08-12T12:25:59.742Z,95405.41
2022-08-12T12:30:19.806Z,95401.63
2022-08-12T12:33:58.101Z,95399.91
2022-08-12T12:38:03.643Z,95408.59
2022-08-12T12:42:42.956Z,95395.72
2022-08-12T12:45:46.315Z,95392.88
2022-08-12T12:49:29.413Z,95386.03
2022-08-12T12:54:05.121Z,95392.25
2022-08-12T12:57:36.223Z,95387.72
2022-08-12T13:01:32.029Z,95372.38
2022-08-12T13:05:16.965Z,95369.84
2022-08-12T13:09:13.522Z,95366.50
2022-08-12T13:12:59.012Z,95377.28
2022-08-12T13:16:43.801Z,95378.88
2022-08-12T13:20:37.846Z,95374.59
2022-08-12T13:24:22.639Z,95375.88
2022-08-12T13:28:06.786Z,95368.34
2022-08-12T13:32:31.140Z,95363.31
2022-08-12T13:36:05.486Z,95356.91
2022-08-12T13:39:50.620Z,95350.34
2022-08-12T13:43:41.397Z,95354.03
2022-08-12T13:47:24.920Z,95350.38
2022-08-12T13:51:07.653Z,95352.22
2022-08-12T13:54:56.267Z,95361.69
2022-08-12T13:58:52.680Z,95359.03
2022-08-12T14:02:36.213Z,95352.13
2022-08-12T14:06:21.099Z,95351.19
2022-08-12T14:10:21.669Z,95345.41
2022-08-12T14:14:15.494Z,95343.69
2022-08-12T14:18:06.943Z,95343.53
2022-08-12T14:22:00.212Z,95344.56
2022-08-12T14:25:48.576Z,95335.53
2022-08-12T14:29:56.522Z,95326.66
2022-08-12T14:33:44.402Z,95330.75
2022-08-12T14:37:57.203Z,95332.06
2022-08-12T14:41:37.110Z,95330.41
2022-08-12T14:45:44.643Z,95339.34
2022-08-12T14:50:41.597Z,95332.81
2022-08-12T14:57:56.840Z,95339.78
2022-08-12T15:01:41.832Z,95341.47
2022-08-12T15:06:05.804Z,95338.66
2022-08-12T15:09:29.380Z,95334.41
2022-08-12T15:13:12.417Z,95337.91
2022-08-12T15:17:00.663Z,95331.44
2022-08-12T15:20:43.833Z,95326.63
2022-08-12T15:24:26.658Z,95327.47
2022-08-12T15:28:20.611Z,95322.94
2022-08-12T15:32:16.063Z,95328.16
2022-08-12T15:35:59.072Z,95331.09
2022-08-12T15:39:55.382Z,95331.63
2022-08-12T15:44:17.026Z,95318.00
2022-08-12T15:47:50.276Z,95325.72
2022-08-12T15:51:58.920Z,95324.31
2022-08-12T15:55:46.217Z,95323.78
2022-08-12T15:59:51.975Z,95327.59
2022-08-12T16:03:46.008Z,95321.63
2022-08-12T16:07:37.057Z,95327.56
2022-08-12T16:11:22.233Z,95335.00
2022-08-12T16:15:05.612Z,95335.75
2022-08-12T16:18:49.918Z,95344.84
2022-08-12T16:22:32.651Z,95337.09
2022-08-12T16:26:20.023Z,95336.84
2022-08-12T16:30:04.387Z,95337.94
2022-08-12T16:33:58.978Z,95341.91
2022-08-12T16:38:25.114Z,95338.63
2022-08-12T16:41:48.212Z,95352.59
2022-08-12T16:46:04.128Z,95341.25
2022-08-12T16:49:43.518Z,95341.03
2022-08-12T16:53:43.474Z,95342.06
2022-08-12T16:57:35.109Z,95339.84
2022-08-12T17:01:25.784Z,95340.31
2022-08-12T17:05:12.547Z,95347.81
2022-08-12T17:09:02.627Z,95347.63
2022-08-12T17:12:45.679Z,95335.34
2022-08-12T17:16:30.380Z,95337.91
2022-08-12T17:20:35.187Z,95342.88
2022-08-12T17:24:21.632Z,95340.34
2022-08-12T17:28:06.346Z,95340.00
2022-08-12T17:31:59.624Z,95338.78
2022-08-12T17:35:50.243Z,95344.72
2022-08-12T17:40:15.642Z,95353.53
2022-08-12T17:43:51.804Z,95344.13
2022-08-12T17:47:39.325Z,95354.19
2022-08-12T17:51:24.441Z,95360.41
2022-08-12T17:55:40.919Z,95359.03
2022-08-12T17:59:12.373Z,95368.38
2022-08-12T18:02:58.026Z,95377.25
2022-08-12T18:06:44.192Z,95379.06
2022-08-12T18:10:53.008Z,95375.03
2022-08-12T18:14:41.413Z,95368.28
2022-08-12T18:18:31.318Z,95372.53
2022-08-12T18:22:17.737Z,95371.81
2022-08-12T18:26:23.463Z,95371.38
2022-08-12T18:30:07.990Z,95379.47
2022-08-12T18:33:52.345Z,95376.34
2022-08-12T18:37:42.214Z,95392.16
2022-08-12T18:41:33.532Z,95384.72
2022-08-12T18:45:19.800Z,95394.66
2022-08-12T18:49:18.745Z,95397.63
2022-08-12T18:53:04.601Z,95393.88
2022-08-12T18:56:47.762Z,95404.06
2022-08-12T19:00:32.149Z,95403.25
2022-08-12T19:04:15.650Z,95401.13
2022-08-12T19:08:02.010Z,95400.56
2022-08-12T19:12:05.238Z,95400.03
2022-08-12T19:15:47.987Z,95407.25
2022-08-12T19:19:37.424Z,95403.19
2022-08-12T19:23:24.825Z,95394.13
2022-08-12T19:27:19.012Z,95397.31
2022-08-12T19:31:44.890Z,95402.09
2022-08-12T19:36:14.306Z,95398.34
2022-08-12T19:40:10.160Z,95397.81
2022-08-12T19:44:00.532Z,95399.94
2022-08-12T19:47:46.875Z,95394.06
2022-08-12T19:51:33.928Z,95402.03
2022-08-12T19:55:21.342Z,95405.19
2022-08-12T19:59:22.997Z,95404.63
2022-08-12T20:03:06.403Z,95405.16
2022-08-12T20:06:51.580Z,95411.53
2022-08-12T20:10:37.125Z,95405.59
2022-08-12T20:14:21.403Z,95408.81
2022-08-12T20:18:43.694Z,95412.53
2022-08-12T20:22:14.864Z,95410.38
2022-08-12T20:26:08.780Z,95415.69
2022-08-12T20:29:54.626Z,95412.47
2022-08-12T20:33:56.256Z,95411.91
2022-08-12T20:38:07.573Z,95409.22
2022-08-12T20:41:43.592Z,95410.25
2022-08-12T20:45:32.894Z,95408.56
2022-08-12T20:49:33.812Z,95412.78
2022-08-12T20:53:18.580Z,95411.69
2022-08-12T20:57:10.342Z,95404.97
2022-08-12T21:00:54.519Z,95405.22
2022-08-12T21:04:55.311Z,95401.47
2022-08-12T21:08:39.254Z,95400.38
2022-08-12T21:12:28.783Z,95409.44
2022-08-12T21:16:35.361Z,95399.28
2022-08-12T21:20:22.748Z,95403.00
2022-08-12T21:24:06.868Z,95404.03
2022-08-12T21:27:59.491Z,95401.84
2022-08-12T21:32:39.349Z,95400.22
2022-08-12T21:35:50.484Z,95390.03
2022-08-12T21:39:35.548Z,95391.38
2022-08-12T21:43:19.698Z,95404.66
2022-08-12T21:47:19.665Z,95398.44
2022-08-12T21:51:22.668Z,95395.72
2022-08-12T21:55:17.732Z,95400.97
2022-08-12T21:59:01.886Z,95406.63
2022-08-12T22:03:02.572Z,95396.41
2022-08-12T22:06:53.267Z,95401.25
2022-08-12T22:10:36.207Z,95391.41
2022-08-12T22:14:21.584Z,95388.50
2022-08-12T22:18:08.434Z,95393.31
2022-08-12T22:21:54.678Z,95401.34
2022-08-12T22:25:40.099Z,95387.81
2022-08-12T22:29:40.364Z,95390.13
2022-08-12T22:33:24.666Z,95380.25
2022-08-12T22:37:11.491Z,95377.03
2022-08-12T22:41:04.883Z,95376.91
2022-08-12T22:45:06.541Z,95373.88
2022-08-12T22:49:00.470Z,95372.78
2022-08-12T22:52:43.973Z,95362.44
2022-08-12T22:56:31.510Z,95360.63
2022-08-12T23:00:27.030Z,95363.34
2022-08-12T23:04:15.931Z,95348.66
2022-08-12T23:08:13.706Z,95356.31
2022-08-12T23:12:02.553Z,95350.19
2022-08-12T23:15:47.472Z,95344.56
2022-08-12T23:19:38.100Z,95338.13
2022-08-12T23:23:21.420Z,95341.84
2022-08-12T23:27:22.426Z,95346.66
2022-08-12T23:31:06.407Z,95342.34
2022-08-12T23:34:50.902Z,95342.03
2022-08-12T23:38:34.470Z,95338.06
2022-08-12T23:42:19.581Z,95336.47
2022-08-12T23:46:08.902Z,95334.59
2022-08-12T23:49:57.457Z,95333.25
2022-08-12T23:53:43.893Z,95339.38
2022-08-12T23:57:26.682Z,95339.63
